Time;durP1;ratioP1;P1;durP2;ratioP2;P2;SDS_P1;SDS_P2;PMS_P1;PMS_P2;Temp;Humidity;BMP_temperature;BMP_pressure;BME280_temperature;BME280_humidity;BME280_pressure;Samples;Min_cycle;Max_cycle;Signal;HPM_P1;HPM_P2
2023/06/05 00:02:04;;;;;;;10.25;5.68;;;;;;;12.37;100.00;102489.06;5044309;28;20100;-57
2023/06/05 00:04:30;;;;;;;9.10;5.32;;;;;;;12.32;100.00;102482.09;5044459;28;20032;-57
2023/06/05 00:06:56;;;;;;;11.85;5.90;;;;;;;12.31;100.00;102478.59;5044071;28;20025;-57
2023/06/05 00:09:22;;;;;;;15.65;5.55;;;;;;;12.25;100.00;102476.91;5043728;28;20036;-57
2023/06/05 00:11:47;;;;;;;11.88;6.03;;;;;;;12.23;100.00;102468.16;5043136;28;20033;-57
2023/06/05 00:14:13;;;;;;;7.00;5.45;;;;;;;12.25;100.00;102476.03;5044388;28;20075;-59
2023/06/05 00:16:38;;;;;;;11.02;6.30;;;;;;;12.08;100.00;102474.53;5044612;28;20020;-58
2023/06/05 00:19:04;;;;;;;12.60;6.05;;;;;;;12.15;100.00;102477.06;5043799;28;20025;-58
2023/06/05 00:21:29;;;;;;;9.80;6.13;;;;;;;12.11;100.00;102466.56;5043979;28;20033;-61
2023/06/05 00:23:54;;;;;;;9.82;6.55;;;;;;;12.08;100.00;102471.88;5044127;28;20078;-59
2023/06/05 00:26:20;;;;;;;8.15;6.63;;;;;;;12.12;100.00;102468.28;5043356;28;20386;-59
2023/06/05 00:28:46;;;;;;;11.88;6.75;;;;;;;12.05;100.00;102468.38;5044167;28;20053;-59
2023/06/05 00:31:12;;;;;;;8.88;6.38;;;;;;;12.02;100.00;102469.28;5044215;28;20488;-57
2023/06/05 00:33:38;;;;;;;12.10;6.93;;;;;;;12.04;100.00;102471.91;5044217;28;20021;-57
2023/06/05 00:36:04;;;;;;;10.52;6.65;;;;;;;11.99;100.00;102469.31;5043971;28;20399;-56
2023/06/05 00:38:29;;;;;;;12.00;7.10;;;;;;;11.95;100.00;102472.91;5044207;28;20590;-57
2023/06/05 00:40:55;;;;;;;12.60;7.07;;;;;;;11.90;100.00;102472.09;5043283;28;20032;-58
2023/06/05 00:43:20;;;;;;;8.57;6.72;;;;;;;11.91;100.00;102469.44;5044276;28;20500;-58
2023/06/05 00:45:45;;;;;;;14.23;7.57;;;;;;;11.85;100.00;102470.38;5043393;28;20028;-58
2023/06/05 00:48:11;;;;;;;13.20;6.75;;;;;;;11.93;100.00;102466.75;5044309;28;20025;-56
2023/06/05 00:50:37;;;;;;;11.52;7.20;;;;;;;11.88;100.00;102470.34;5044238;28;20021;-58
2023/06/05 00:53:03;;;;;;;9.80;7.32;;;;;;;11.94;100.00;102469.38;5025720;28;20033;-58
2023/06/05 00:55:28;;;;;;;10.45;7.45;;;;;;;11.87;100.00;102473.84;5025326;28;20028;-58
2023/06/05 00:57:54;;;;;;;12.95;7.80;;;;;;;11.90;100.00;102472.09;5043842;28;20146;-58
2023/06/05 01:00:21;;;;;;;14.93;7.95;;;;;;;11.83;100.00;102471.31;5026143;28;20055;-55
2023/06/05 01:02:46;;;;;;;13.70;7.45;;;;;;;11.86;100.00;102471.28;5043352;28;20025;-57
2023/06/05 01:05:12;;;;;;;11.85;6.90;;;;;;;11.77;100.00;102474.88;5043809;28;20055;-58
2023/06/05 01:07:38;;;;;;;10.40;7.20;;;;;;;11.81;100.00;102468.69;5116766;22;20144;-59
2023/06/05 01:10:05;;;;;;;11.15;7.13;;;;;;;11.79;100.00;102473.09;5043156;28;20120;-56
2023/06/05 01:12:38;;;;;;;15.20;7.95;;;;;;;11.82;100.00;102466.91;5043664;28;20057;-58
2023/06/05 01:15:06;;;;;;;11.02;6.85;;;;;;;11.82;100.00;102467.78;5042419;28;20104;-59
2023/06/05 01:17:34;;;;;;;13.65;7.45;;;;;;;11.78;100.00;102468.72;5043594;28;20021;-59
2023/06/05 01:20:09;;;;;;;11.32;6.68;;;;;;;11.76;100.00;102467.84;5043932;28;20021;-58
2023/06/05 01:22:37;;;;;;;16.55;7.78;;;;;;;11.76;100.00;102465.22;5047814;28;20533;-56
2023/06/05 01:25:04;;;;;;;11.25;7.70;;;;;;;11.63;100.00;102469.78;5046741;28;20108;-62
2023/06/05 01:27:42;;;;;;;10.40;6.90;;;;;;;11.75;100.00;102466.13;5047418;28;20155;-62
2023/06/05 01:30:19;;;;;;;12.90;7.22;;;;;;;11.79;100.00;102467.81;5048064;28;20017;-59
2023/06/05 01:33:02;;;;;;;11.82;8.15;;;;;;;11.71;100.00;102469.69;5046132;28;20106;-58
2023/06/05 01:35:32;;;;;;;12.57;6.78;;;;;;;11.77;100.00;102466.94;5046390;28;20041;-57
2023/06/05 01:37:59;;;;;;;12.00;7.43;;;;;;;11.75;100.00;102455.56;5047354;28;20112;-60
2023/06/05 01:40:25;;;;;;;14.45;7.30;;;;;;;11.81;100.00;102466.03;5046547;28;20438;-59
2023/06/05 01:42:53;;;;;;;14.63;8.30;;;;;;;11.74;100.00;102456.47;5029241;28;20218;-54
2023/06/05 01:45:19;;;;;;;10.88;7.60;;;;;;;11.78;100.00;102452.88;5046038;28;20024;-56
2023/06/05 01:47:48;;;;;;;13.50;7.03;;;;;;;11.73;100.00;102459.97;5046807;28;20021;-57
2023/06/05 01:50:14;;;;;;;12.77;6.47;;;;;;;11.63;100.00;102465.34;5047163;28;20032;-58
2023/06/05 01:52:41;;;;;;;14.00;7.53;;;;;;;11.59;100.00;102458.38;5047137;28;20040;-57
2023/06/05 01:55:12;;;;;;;11.07;7.55;;;;;;;11.56;100.00;102458.41;5046083;28;20025;-56
2023/06/05 01:57:37;;;;;;;12.73;7.18;;;;;;;11.65;100.00;102452.13;5047581;28;20033;-58
2023/06/05 02:00:08;;;;;;;15.43;7.80;;;;;;;11.57;100.00;102454.00;5046517;28;20108;-58
2023/06/05 02:02:34;;;;;;;11.77;7.22;;;;;;;11.56;100.00;102447.00;5046993;28;20024;-54
2023/06/05 02:04:59;;;;;;;12.30;7.63;;;;;;;11.67;100.00;102442.44;5046537;28;20391;-55
2023/06/05 02:07:24;;;;;;;10.90;6.95;;;;;;;11.67;100.00;102444.19;5046725;28;20040;-61
2023/06/05 02:09:50;;;;;;;9.80;6.82;;;;;;;11.64;100.00;102445.13;5046302;28;20029;-56
2023/06/05 02:12:16;;;;;;;15.65;7.43;;;;;;;11.63;100.00;102446.88;5045113;28;20366;-55
2023/06/05 02:14:44;;;;;;;10.68;6.57;;;;;;;11.61;100.00;102442.50;5047188;28;20108;-56
2023/06/05 02:17:13;;;;;;;9.30;6.32;;;;;;;11.59;100.00;102445.16;5045523;28;20471;-57
2023/06/05 02:19:41;;;;;;;10.60;6.93;;;;;;;11.59;100.00;102437.25;5047179;28;20059;-59
2023/06/05 02:22:06;;;;;;;10.63;6.90;;;;;;;11.59;100.00;102442.53;5046586;28;20464;-59
2023/06/05 02:24:31;;;;;;;9.45;6.30;;;;;;;11.47;100.00;102440.06;5046494;28;20101;-60
2023/06/05 02:26:57;;;;;;;13.48;7.15;;;;;;;11.50;100.00;102437.38;5045944;28;20113;-59
2023/06/05 02:29:22;;;;;;;13.60;7.13;;;;;;;11.42;100.00;102433.94;5046720;28;20403;-59
2023/06/05 02:31:48;;;;;;;13.02;6.90;;;;;;;11.32;100.00;102428.78;5045178;28;20036;-60
2023/06/05 02:34:14;;;;;;;11.13;6.65;;;;;;;11.30;100.00;102429.69;5046401;28;20052;-61
2023/06/05 02:36:40;;;;;;;11.77;6.65;;;;;;;11.36;100.00;102433.16;5046984;28;20033;-60
2023/06/05 02:39:06;;;;;;;9.07;6.10;;;;;;;11.42;100.00;102436.59;5046016;28;20617;-60
2023/06/05 02:41:31;;;;;;;9.05;6.35;;;;;;;11.37;100.00;102437.53;5045604;28;20029;-59
2023/06/05 02:43:58;;;;;;;8.95;5.80;;;;;;;11.33;100.00;102441.09;5045892;28;20029;-58
2023/06/05 02:46:24;;;;;;;6.85;6.05;;;;;;;11.31;100.00;102437.59;5045927;28;20025;-58
2023/06/05 02:48:50;;;;;;;11.25;6.97;;;;;;;11.30;100.00;102442.88;5045800;28;20029;-59
2023/06/05 02:51:16;;;;;;;12.40;6.65;;;;;;;11.28;100.00;102442.91;5045766;28;20056;-55
2023/06/05 02:53:41;;;;;;;14.20;6.32;;;;;;;11.28;100.00;102445.53;5046222;28;20572;-58
2023/06/05 02:56:06;;;;;;;15.18;5.70;;;;;;;11.23;100.00;102439.44;5045306;28;20052;-59
2023/06/05 02:58:33;;;;;;;9.77;6.43;;;;;;;11.22;100.00;102438.56;5045791;28;20056;-58
2023/06/05 03:01:02;;;;;;;9.43;5.43;;;;;;;11.25;100.00;102440.28;5045443;28;20111;-59
2023/06/05 03:03:31;;;;;;;8.65;6.25;;;;;;;11.25;100.00;102437.66;5045764;28;20589;-56
2023/06/05 03:06:06;;;;;;;;;;;;;;;11.24;100.00;102439.44;5045838;28;20033;-60
2023/06/05 03:08:35;;;;;;;10.32;6.35;;;;;;;11.14;100.00;102432.50;5045743;28;20033;-55
2023/06/05 03:11:01;;;;;;;7.78;6.35;;;;;;;11.21;100.00;102426.28;5044478;28;20071;-55
2023/06/05 03:13:27;;;;;;;10.85;6.32;;;;;;;11.19;100.00;102424.53;5045664;28;20070;-59
2023/06/05 03:15:53;;;;;;;11.77;6.60;;;;;;;11.15;100.00;102428.09;5045149;28;20417;-55
2023/06/05 03:18:20;;;;;;;10.95;6.80;;;;;;;11.02;100.00;102422.09;5043806;28;20083;-56
2023/06/05 03:20:47;;;;;;;13.32;6.03;;;;;;;11.15;100.00;102421.06;5045212;28;20032;-57
2023/06/05 03:23:12;;;;;;;10.75;6.97;;;;;;;11.12;100.00;102421.97;5045143;28;20559;-57
2023/06/05 03:25:38;;;;;;;14.35;6.45;;;;;;;11.04;100.00;102426.44;5044990;28;20021;-59
2023/06/05 03:28:03;;;;;;;9.38;6.80;;;;;;;11.02;100.00;102424.72;5045208;28;20021;-58
2023/06/05 03:30:28;;;;;;;12.52;7.28;;;;;;;11.02;100.00;102419.44;5045070;28;20025;-57
2023/06/05 03:32:54;;;;;;;12.95;6.60;;;;;;;11.06;100.00;102418.50;5044914;28;20028;-59
2023/06/05 03:35:19;;;;;;;12.73;6.43;;;;;;;10.95;100.00;102419.50;5045611;28;20030;-56
2023/06/05 03:37:44;;;;;;;12.88;6.53;;;;;;;10.95;100.00;102416.88;5047844;28;20031;-56
2023/06/05 03:40:12;;;;;;;14.75;6.70;;;;;;;11.00;100.00;102422.09;5050257;28;20029;-56
2023/06/05 03:42:37;;;;;;;7.80;6.28;;;;;;;11.00;100.00;102424.72;5047647;28;20032;-59
2023/06/05 03:45:03;;;;;;;16.80;7.40;;;;;;;10.91;100.00;102414.28;5044877;28;20079;-57
2023/06/05 03:47:28;;;;;;;15.13;7.25;;;;;;;10.94;100.00;102416.88;5044716;28;20027;-56
2023/06/05 03:49:55;;;;;;;10.25;6.57;;;;;;;11.07;100.00;102417.63;5044934;28;20031;-57
2023/06/05 03:52:24;;;;;;;11.63;6.93;;;;;;;10.94;100.00;102425.69;5044969;28;20036;-59
2023/06/05 03:54:53;;;;;;;11.02;6.85;;;;;;;10.94;100.00;102422.16;5043595;28;20045;-59
2023/06/05 03:57:20;;;;;;;;;;;;;;;10.97;100.00;102423.00;5043679;28;20037;-57
2023/06/05 03:59:46;;;;;;;9.27;6.60;;;;;;;11.04;100.00;102428.19;5044366;28;19923;-57
2023/06/05 04:02:12;;;;;;;11.23;6.80;;;;;;;11.02;100.00;102425.59;5044587;28;20107;-56
2023/06/05 04:04:37;;;;;;;12.95;7.18;;;;;;;11.06;100.00;102435.22;5044948;28;20040;-61
2023/06/05 04:07:03;;;;;;;9.20;6.63;;;;;;;11.19;100.00;102424.53;5044167;28;20049;-56
2023/06/05 04:09:29;;;;;;;9.55;6.18;;;;;;;11.19;100.00;102425.41;5043500;28;20036;-57
2023/06/05 04:11:54;;;;;;;8.98;6.57;;;;;;;11.22;100.00;102428.00;5043626;28;20029;-59
2023/06/05 04:14:20;;;;;;;13.35;6.45;;;;;;;11.10;100.00;102428.13;5043933;28;20065;-55
2023/06/05 04:16:46;;;;;;;11.43;6.43;;;;;;;11.15;100.00;102423.69;5043601;28;20086;-56
2023/06/05 04:19:12;;;;;;;12.60;6.15;;;;;;;11.33;100.00;102427.03;5042989;28;20120;-56
2023/06/05 04:21:38;;;;;;;8.65;5.78;;;;;;;11.22;100.00;102428.00;5044430;28;20114;-55
2023/06/05 04:24:06;;;;;;;9.85;6.60;;;;;;;11.21;100.00;102431.56;5044225;28;20074;-55
2023/06/05 04:26:36;;;;;;;9.13;6.35;;;;;;;11.44;100.00;102424.25;5043434;28;20044;-59
2023/06/05 04:29:02;;;;;;;12.57;6.55;;;;;;;11.45;100.00;102436.56;5043889;28;20395;-60
2023/06/05 04:31:32;;;;;;;12.43;5.90;;;;;;;11.37;100.00;102431.38;5044001;28;20060;-58
2023/06/05 04:33:58;;;;;;;8.18;6.25;;;;;;;11.35;100.00;102431.38;5043953;28;20072;-63
2023/06/05 04:36:24;;;;;;;9.80;6.82;;;;;;;11.43;100.00;102431.28;5043471;28;20095;-57
2023/06/05 04:38:49;;;;;;;7.88;5.57;;;;;;;11.49;100.00;102435.63;5043596;28;20049;-60
2023/06/05 04:41:15;;;;;;;12.07;6.00;;;;;;;11.48;100.00;102428.59;5043229;28;20080;-57
2023/06/05 04:43:40;;;;;;;9.63;6.05;;;;;;;11.61;100.00;102435.47;5043764;28;20224;-56
2023/06/05 04:46:06;;;;;;;7.15;5.53;;;;;;;11.61;100.00;102432.84;5043824;28;20021;-55
2023/06/05 04:48:31;;;;;;;11.70;6.13;;;;;;;11.75;100.00;102432.63;5044069;28;20462;-59
2023/06/05 04:50:57;;;;;;;8.50;6.07;;;;;;;11.63;100.00;102433.66;5043465;28;20033;-56
2023/06/05 04:53:22;;;;;;;8.55;5.35;;;;;;;11.75;100.00;102431.78;5043786;28;20031;-57
2023/06/05 04:55:48;;;;;;;8.73;4.95;;;;;;;11.81;100.00;102437.00;5044584;28;20501;-57
2023/06/05 04:58:15;;;;;;;10.65;5.43;;;;;;;11.74;100.00;102446.75;5047604;28;20112;-60
2023/06/05 05:00:43;;;;;;;10.82;5.93;;;;;;;11.82;100.00;102445.78;5047848;28;20505;-60
2023/06/05 05:03:09;;;;;;;8.15;4.65;;;;;;;11.74;100.00;102453.81;5047706;28;20025;-58
2023/06/05 05:05:36;;;;;;;6.80;4.90;;;;;;;11.99;100.00;102445.56;5047822;28;20113;-58
2023/06/05 05:08:01;;;;;;;7.70;5.38;;;;;;;12.01;100.00;102443.75;5046858;28;20061;-59
2023/06/05 05:10:26;;;;;;;12.98;5.20;;;;;;;12.13;100.00;102445.38;5046861;28;20572;-59
2023/06/05 05:12:52;;;;;;;11.05;5.35;;;;;;;12.18;100.00;102443.53;5046915;28;20418;-55
2023/06/05 05:15:17;;;;;;;9.40;5.57;;;;;;;12.11;100.00;102448.06;5047280;28;20025;-56
2023/06/05 05:17:42;;;;;;;10.88;5.57;;;;;;;12.18;100.00;102451.47;5047223;28;20035;-60
2023/06/05 05:20:08;;;;;;;8.98;5.57;;;;;;;12.12;100.00;102436.59;5047744;28;20113;-59
2023/06/05 05:22:33;;;;;;;14.50;5.95;;;;;;;12.18;100.00;102440.91;5047306;28;20025;-55
2023/06/05 05:24:58;;;;;;;12.70;5.53;;;;;;;12.27;100.00;102437.25;5046083;28;20037;-53
2023/06/05 05:27:24;;;;;;;10.20;6.03;;;;;;;12.30;100.00;102434.56;5046861;28;20071;-58
2023/06/05 05:29:50;;;;;;;13.48;6.22;;;;;;;12.36;100.00;102429.19;5047003;28;20507;-56
2023/06/05 05:32:15;;;;;;;12.57;6.07;;;;;;;12.41;100.00;102436.16;5047308;28;20548;-57
2023/06/05 05:34:41;;;;;;;21.23;6.78;;;;;;;12.51;100.00;102435.09;5047505;28;20033;-58
2023/06/05 05:37:06;;;;;;;11.70;6.30;;;;;;;12.44;100.00;102437.00;5046574;28;20017;-56
2023/06/05 05:39:31;;;;;;;10.63;6.00;;;;;;;12.54;100.00;102443.00;5046137;28;20029;-57
2023/06/05 05:41:57;;;;;;;26.50;7.32;;;;;;;12.68;100.00;102444.53;5046459;28;20434;-62
2023/06/05 05:44:22;;;;;;;12.02;6.38;;;;;;;12.69;100.00;102447.16;5045402;28;20021;-57
2023/06/05 05:46:47;;;;;;;14.18;6.00;;;;;;;12.91;100.00;102443.25;5046389;28;20467;-58
2023/06/05 05:49:13;;;;;;;12.35;5.60;;;;;;;12.93;100.00;102444.97;5046822;28;20033;-62
2023/06/05 05:51:39;;;;;;;9.90;6.10;;;;;;;12.96;100.00;102438.75;5047075;28;20463;-60
2023/06/05 05:54:04;;;;;;;8.40;6.03;;;;;;;13.00;100.00;102440.44;5046566;28;20079;-57
2023/06/05 05:56:30;;;;;;;12.38;5.82;;;;;;;12.81;100.00;102440.78;5045843;28;20021;-57
2023/06/05 05:58:55;;;;;;;8.25;5.22;;;;;;;12.90;100.00;102439.72;5046227;28;20087;-58
2023/06/05 06:01:21;;;;;;;8.00;5.10;;;;;;;13.23;100.00;102436.47;5044745;28;20028;-56
2023/06/05 06:03:47;;;;;;;7.22;4.97;;;;;;;13.10;100.00;102442.00;5046110;28;20071;-55
2023/06/05 06:06:12;;;;;;;10.55;5.40;;;;;;;13.09;100.00;102439.38;5046011;28;20471;-61
2023/06/05 06:08:38;;;;;;;7.25;5.25;;;;;;;13.18;100.00;102443.66;5045947;28;20095;-57
2023/06/05 06:11:06;;;;;;;12.80;5.40;;;;;;;13.01;100.00;102452.78;5044971;28;20415;-59
2023/06/05 06:13:34;;;;;;;11.90;5.93;;;;;;;12.91;100.00;102448.56;5046516;28;20029;-57
2023/06/05 06:16:01;;;;;;;8.40;5.87;;;;;;;13.02;100.00;102451.88;5046289;28;20021;-63
2023/06/05 06:18:26;;;;;;;10.00;5.18;;;;;;;13.09;100.00;102453.50;5046273;28;20438;-61
2023/06/05 06:20:51;;;;;;;8.90;4.93;;;;;;;13.11;100.00;102449.06;5046187;28;20017;-61
2023/06/05 06:23:17;;;;;;;8.25;5.22;;;;;;;13.06;100.00;102447.41;5046351;28;20017;-61
2023/06/05 06:25:42;;;;;;;12.07;5.38;;;;;;;13.38;100.00;102441.47;5045492;28;20043;-61
2023/06/05 06:28:07;;;;;;;7.18;5.15;;;;;;;13.26;100.00;102441.72;5046591;28;20025;-60
2023/06/05 06:30:33;;;;;;;10.00;4.82;;;;;;;13.21;100.00;102455.03;5045822;28;20025;-59
2023/06/05 06:32:58;;;;;;;8.10;4.97;;;;;;;13.33;100.00;102443.34;5045524;28;20383;-60
2023/06/05 06:35:27;;;;;;;9.55;4.28;;;;;;;13.75;100.00;102438.97;5045964;28;20045;-59
2023/06/05 06:37:56;;;;;;;5.47;4.57;;;;;;;14.05;100.00;102441.84;5045381;28;20029;-61
2023/06/05 06:40:21;;;;;;;;;;;;;;;13.91;100.00;102450.13;5045720;28;20025;-59
2023/06/05 06:42:47;;;;;;;8.18;4.13;;;;;;;14.29;100.00;102447.50;5045484;28;19936;-58
2023/06/05 06:45:12;;;;;;;7.32;4.07;;;;;;;14.02;100.00;102453.41;5045584;28;20344;-63
2023/06/05 06:47:38;;;;;;;5.68;4.20;;;;;;;14.20;100.00;102453.00;5045928;28;20115;-61
2023/06/05 06:50:04;;;;;;;4.97;4.20;;;;;;;14.28;100.00;102453.72;5045762;28;20035;-55
2023/06/05 06:52:30;;;;;;;7.97;3.95;;;;;;;14.36;100.00;102458.84;5045557;28;20029;-57
2023/06/05 06:54:56;;;;;;;6.78;3.67;;;;;;;14.50;100.00;102448.75;5044337;28;20045;-60
2023/06/05 06:57:21;;;;;;;8.10;3.72;;;;;;;14.43;100.00;102451.59;5045356;28;20021;-57
2023/06/05 06:59:47;;;;;;;6.80;4.10;;;;;;;14.29;100.00;102452.78;5045222;28;20532;-61
2023/06/05 07:02:14;;;;;;;6.10;3.55;;;;;;;14.44;100.00;102451.56;5045320;28;20568;-62
2023/06/05 07:04:43;;;;;;;12.55;4.00;;;;;;;14.13;100.00;102457.59;5045427;28;20032;-59
2023/06/05 07:07:13;;;;;;;6.45;3.80;;;;;;;14.25;100.00;102459.09;5045478;28;20083;-56
2023/06/05 07:09:39;;;;;;;5.28;3.03;;;;;;;14.42;100.00;102449.84;5044617;28;20517;-59
2023/06/05 07:12:07;;;;;;;7.00;3.72;;;;;;;14.59;100.00;102457.38;5043442;28;20047;-58
2023/06/05 07:14:35;;;;;;;6.55;3.60;;;;;;;14.40;100.00;102458.72;5045050;28;20036;-62
2023/06/05 07:17:01;;;;;;;6.30;3.22;;;;;;;14.34;100.00;102458.88;5044961;28;20479;-59
2023/06/05 07:19:28;;;;;;;5.47;2.97;;;;;;;14.22;100.00;102465.34;5045451;28;20024;-55
2023/06/05 07:21:56;;;;;;;5.07;3.28;;;;;;;14.27;100.00;102468.75;5044964;28;20488;-56
2023/06/05 07:24:21;;;;;;;8.80;3.60;;;;;;;14.29;100.00;102466.06;5045074;28;20032;-58
2023/06/05 07:26:46;;;;;;;6.55;3.17;;;;;;;14.31;100.00;102458.94;5044792;28;20029;-59
2023/06/05 07:29:12;;;;;;;4.82;3.58;;;;;;;14.74;100.00;102464.97;5045227;28;20100;-63
2023/06/05 07:31:38;;;;;;;6.07;3.80;;;;;;;14.88;100.00;102464.66;5045588;28;20089;-58
2023/06/05 07:34:04;;;;;;;11.60;3.72;;;;;;;14.86;100.00;102469.13;5044848;28;20048;-57
2023/06/05 07:36:30;;;;;;;4.45;3.17;;;;;;;14.99;100.00;102460.84;5043619;28;20029;-57
2023/06/05 07:38:56;;;;;;;7.65;3.78;;;;;;;14.93;100.00;102461.84;5044491;28;20021;-56
2023/06/05 07:41:21;;;;;;;5.45;3.05;;;;;;;15.07;100.00;102458.84;5045493;28;20479;-58
2023/06/05 07:43:47;;;;;;;3.85;3.33;;;;;;;14.91;100.00;102461.88;5044604;28;20081;-55
2023/06/05 07:46:14;;;;;;;5.00;3.50;;;;;;;15.05;100.00;102468.63;5043887;28;20064;-63
2023/06/05 07:48:39;;;;;;;8.52;3.40;;;;;;;15.11;100.00;102459.63;5045558;28;20087;-56
2023/06/05 07:51:05;;;;;;;4.50;3.42;;;;;;;15.18;100.00;102462.97;5044249;28;20037;-59
2023/06/05 07:53:30;;;;;;;3.80;3.50;;;;;;;15.41;100.00;102454.34;5045037;28;20029;-60
2023/06/05 07:55:55;;;;;;;6.32;4.10;;;;;;;15.50;100.00;102454.09;5043782;28;20291;-60
2023/06/05 07:58:21;;;;;;;5.13;4.25;;;;;;;15.53;100.00;102464.63;5044672;28;20028;-55
2023/06/05 08:00:47;;;;;;;7.05;4.15;;;;;;;15.60;100.00;102457.38;5044601;28;20021;-62
2023/06/05 08:03:23;;;;;;;7.20;4.50;;;;;;;15.25;100.00;102468.09;5044379;28;20029;-61
2023/06/05 08:05:51;;;;;;;6.75;4.40;;;;;;;15.37;100.00;102471.31;5044200;28;20098;-59
2023/06/05 08:08:16;;;;;;;4.33;3.53;;;;;;;15.47;100.00;102458.66;5044368;28;20538;-58
2023/06/05 08:10:42;;;;;;;5.78;4.30;;;;;;;15.71;100.00;102461.50;5044078;28;20108;-61
2023/06/05 08:13:08;;;;;;;6.22;3.78;;;;;;;15.58;100.00;102460.97;5044671;28;20108;-59
2023/06/05 08:15:33;;;;;;;4.97;3.72;;;;;;;15.49;100.00;102467.44;5044878;28;20024;-56
2023/06/05 08:17:59;;;;;;;6.63;4.00;;;;;;;15.17;100.00;102459.44;5044196;28;20442;-56
2023/06/05 08:20:24;;;;;;;5.75;4.18;;;;;;;15.00;100.00;102458.16;5044221;28;20155;-57
2023/06/05 08:22:50;;;;;;;6.82;4.18;;;;;;;15.29;100.00;102474.16;5043848;28;20033;-60
2023/06/05 08:25:15;;;;;;;7.15;4.20;;;;;;;15.16;100.00;102457.72;5042321;28;20112;-59
2023/06/05 08:27:40;;;;;;;6.35;3.80;;;;;;;15.26;100.00;102461.00;5044693;28;20356;-56
2023/06/05 08:30:07;;;;;;;5.45;3.78;;;;;;;15.36;100.00;102451.88;5043273;28;20051;-56
2023/06/05 08:32:32;;;;;;;6.53;3.70;;;;;;;15.41;100.00;102449.94;5044138;28;20033;-59
2023/06/05 08:34:58;;;;;;;4.03;3.13;;;;;;;15.44;100.00;102446.31;5044039;28;20025;-58
2023/06/05 08:37:23;;;;;;;5.70;3.47;;;;;;;15.36;100.00;102446.56;5043931;28;20055;-59
2023/06/05 08:39:50;;;;;;;5.40;3.40;;;;;;;15.52;100.00;102451.41;5043459;28;20556;-57
2023/06/05 08:42:18;;;;;;;4.00;3.10;;;;;;;15.61;100.00;102452.91;5044169;28;20525;-56
2023/06/05 08:44:47;;;;;;;4.00;3.33;;;;;;;15.68;100.00;102448.31;5059120;28;20545;-59
2023/06/05 08:47:12;;;;;;;;;;;;;;;15.84;100.00;102446.94;5043466;28;20029;-62
2023/06/05 08:49:40;;;;;;;4.77;3.70;;;;;;;15.77;100.00;102442.69;5042820;28;19917;-60
2023/06/05 08:52:06;;;;;;;5.15;3.33;;;;;;;15.69;100.00;102444.72;5042544;28;20287;-59
2023/06/05 08:54:37;;;;;;;5.90;3.22;;;;;;;15.73;100.00;102452.56;5043853;28;20033;-62
2023/06/05 08:57:04;;;;;;;5.13;2.88;;;;;;;15.91;100.00;102450.25;5042498;28;20025;-58
2023/06/05 08:59:30;;;;;;;3.63;2.58;;;;;;;15.86;100.00;102447.75;5044038;28;20047;-57
2023/06/05 09:01:56;;;;;;;3.88;3.03;;;;;;;16.00;100.00;102451.78;5042388;28;20017;-59
2023/06/05 09:04:21;;;;;;;8.75;3.30;;;;;;;16.09;100.00;102450.63;5044061;28;20032;-57
2023/06/05 09:06:47;;;;;;;29.73;4.13;;;;;;;16.16;100.00;102449.50;5044097;28;20025;-54
2023/06/05 09:09:14;;;;;;;5.97;3.22;;;;;;;16.08;100.00;102447.13;5043248;28;20018;-64
2023/06/05 09:11:40;;;;;;;5.78;3.50;;;;;;;16.39;100.00;102446.13;5046042;28;20247;-61
2023/06/05 09:14:05;;;;;;;6.95;3.15;;;;;;;16.23;100.00;102444.88;5048458;28;20507;-60
2023/06/05 09:16:37;;;;;;;4.70;3.50;;;;;;;16.14;100.00;102444.25;5048064;28;20413;-58
2023/06/05 09:19:03;;;;;;;7.22;3.42;;;;;;;16.20;100.00;102439.66;5045470;28;20238;-59
2023/06/05 09:21:30;;;;;;;5.30;3.00;;;;;;;16.35;100.00;102436.50;5043763;28;20040;-59
2023/06/05 09:24:17;;;;;;;5.82;2.97;;;;;;;16.59;100.00;102439.28;5042692;28;20025;-60
2023/06/05 09:27:05;;;;;;;4.55;2.90;;;;;;;16.77;100.00;102439.56;5043157;28;20025;-62
2023/06/05 09:29:39;;;;;;;4.13;3.35;;;;;;;16.74;100.00;102434.34;5043833;28;20108;-55
2023/06/05 09:32:13;;;;;;;4.10;3.30;;;;;;;16.92;100.00;102433.69;5042225;28;20082;-61
2023/06/05 09:34:40;;;;;;;4.53;3.53;;;;;;;16.88;100.00;102426.72;5043950;28;20025;-56
2023/06/05 09:37:09;;;;;;;5.57;4.20;;;;;;;16.79;100.00;102429.69;5043130;28;20079;-58
2023/06/05 09:39:40;;;;;;;7.18;3.97;;;;;;;17.09;100.00;102432.25;5042981;28;20100;-63
2023/06/05 09:42:06;;;;;;;5.05;3.33;;;;;;;17.35;100.00;102427.75;5044166;28;20029;-59
2023/06/05 09:44:34;;;;;;;4.82;3.53;;;;;;;17.19;100.00;102424.81;5047413;28;20095;-58
2023/06/05 09:47:10;;;;;;;5.47;3.83;;;;;;;17.13;100.00;102433.84;5047055;28;20296;-56
2023/06/05 09:49:41;;;;;;;5.03;3.38;;;;;;;17.06;99.70;102429.66;5047087;28;20021;-59
2023/06/05 09:52:11;;;;;;;4.13;3.45;;;;;;;17.26;96.22;102423.66;5046840;28;20179;-57
2023/06/05 09:54:44;;;;;;;4.90;3.35;;;;;;;17.33;96.09;102429.59;5046116;28;20029;-60
2023/06/05 09:57:11;;;;;;;7.60;3.80;;;;;;;17.51;97.83;102425.38;5047245;28;20017;-58
2023/06/05 09:59:48;;;;;;;8.50;3.70;;;;;;;17.53;98.49;102423.53;5047007;28;20244;-57
2023/06/05 10:02:17;;;;;;;4.30;3.63;;;;;;;17.46;96.02;102421.16;5046966;28;20251;-58
2023/06/05 10:04:47;;;;;;;10.57;3.83;;;;;;;17.49;98.35;102423.72;5045200;28;20031;-62
2023/06/05 10:07:12;;;;;;;4.55;4.10;;;;;;;17.80;97.28;102415.41;5045409;28;20049;-63
2023/06/05 10:09:39;;;;;;;4.63;3.85;;;;;;;17.86;94.62;102414.28;5046594;28;20032;-56
2023/06/05 10:12:05;;;;;;;6.75;4.28;;;;;;;18.17;91.77;102415.72;5046051;28;20032;-62
2023/06/05 10:14:30;;;;;;;7.30;4.18;;;;;;;18.02;95.21;102413.63;5046707;28;20024;-57
2023/06/05 10:16:57;;;;;;;4.53;3.97;;;;;;;18.28;97.46;102417.97;5046872;28;20033;-59
2023/06/05 10:19:24;;;;;;;6.35;4.53;;;;;;;18.14;93.57;102399.84;5045304;28;20036;-60
2023/06/05 10:21:50;;;;;;;4.85;3.55;;;;;;;18.51;95.06;102410.75;5046781;28;20021;-61
2023/06/05 10:24:20;;;;;;;7.18;4.22;;;;;;;18.57;93.04;102412.28;5046008;28;20353;-60
2023/06/05 10:27:12;;;;;;;6.25;4.30;;;;;;;18.18;93.53;102406.78;5045014;28;20158;-58
2023/06/05 10:30:06;;;;;;;5.47;4.30;;;;;;;18.68;91.80;102407.38;5045161;28;20436;-60
2023/06/05 10:32:51;;;;;;;6.82;4.90;;;;;;;18.36;94.62;102409.59;5046050;28;20104;-60
2023/06/05 10:35:45;;;;;;;10.98;4.05;;;;;;;18.43;94.68;102404.91;5045067;28;20029;-58
2023/06/05 10:38:18;;;;;;;6.20;4.20;;;;;;;18.37;95.80;102402.47;5046408;28;20129;-63
2023/06/05 10:41:01;;;;;;;6.15;4.32;;;;;;;18.73;94.58;102403.63;5045382;28;20483;-59
2023/06/05 10:43:31;;;;;;;6.72;4.25;;;;;;;18.98;90.96;102398.06;5044973;28;20065;-61
2023/06/05 10:45:58;;;;;;;5.32;4.65;;;;;;;19.27;89.02;102397.72;5045792;28;20103;-56
2023/06/05 10:49:01;;;;;;;5.10;4.60;;;;;;;19.19;90.69;102401.63;5044802;28;20293;-56
2023/06/05 10:51:39;;;;;;;7.75;4.88;;;;;;;19.13;92.27;102393.00;5046137;28;20410;-62
2023/06/05 10:54:08;;;;;;;6.00;4.88;;;;;;;19.34;89.88;102393.81;5044143;28;20029;-61
2023/06/05 10:59:22;;;;;;;5.10;4.32;;;;;;;19.19;90.21;102395.38;5045677;28;20029;-56
2023/06/05 11:02:06;;;;;;;8.70;5.10;;;;;;;19.53;88.27;102391.13;5045578;28;20021;-61
2023/06/05 11:04:46;;;;;;;8.73;4.40;;;;;;;19.62;93.06;102384.47;5045550;28;20043;-59
2023/06/05 11:07:27;;;;;;;9.07;4.90;;;;;;;19.72;91.20;102387.59;5045495;28;20049;-59
2023/06/05 11:10:02;;;;;;;6.80;4.72;;;;;;;19.73;89.86;102383.09;5044944;28;20079;-60
2023/06/05 11:12:40;;;;;;;9.48;5.50;;;;;;;19.57;90.94;102383.84;5045247;28;20037;-60
2023/06/05 11:15:09;;;;;;;8.40;5.40;;;;;;;19.68;90.83;102384.19;5045333;28;20036;-58
2023/06/05 11:17:36;;;;;;;6.85;4.55;;;;;;;19.99;89.37;102380.97;5044066;28;20087;-62
2023/06/05 11:20:07;;;;;;;8.40;4.75;;;;;;;20.31;90.27;102373.16;5045052;28;20029;-55
2023/06/05 11:22:33;;;;;;;5.80;4.82;;;;;;;20.20;87.94;102371.03;5045461;28;20299;-63